sensor_id;sensor_type;location;lat;lon;timestamp;temperature;humidity
57030;DHT22;42920;45.306;20.448;2024-03-08T00:01:31;179.70;2252.80
57030;DHT22;42920;45.306;20.448;2024-03-08T00:03:56;179.70;2252.80
57030;DHT22;42920;45.306;20.448;2024-03-08T00:06:22;179.70;2252.80
57030;DHT22;42920;45.306;20.448;2024-03-08T00:08:48;179.70;2252.80
57030;DHT22;42920;45.306;20.448;2024-03-08T00:11:13;179.60;2252.80
57030;DHT22;42920;45.306;20.448;2024-03-08T00:13:39;179.70;2252.80
57030;DHT22;42920;45.306;20.448;2024-03-08T00:16:05;179.70;2252.80
57030;DHT22;42920;45.306;20.448;2024-03-08T00:18:31;179.60;2252.80
57030;DHT22;42920;45.306;20.448;2024-03-08T00:20:56;179.60;2252.80
57030;DHT22;42920;45.306;20.448;2024-03-08T00:23:22;179.60;2252.80
57030;DHT22;42920;45.306;20.448;2024-03-08T00:25:48;179.70;2252.80
57030;DHT22;42920;45.306;20.448;2024-03-08T00:28:14;179.60;2252.80
57030;DHT22;42920;45.306;20.448;2024-03-08T00:30:42;179.70;2252.80
57030;DHT22;42920;45.306;20.448;2024-03-08T00:33:08;179.70;2252.80
57030;DHT22;42920;45.306;20.448;2024-03-08T00:35:34;179.70;2252.80
57030;DHT22;42920;45.306;20.448;2024-03-08T00:37:59;179.70;2252.80
57030;DHT22;42920;45.306;20.448;2024-03-08T00:40:25;179.70;2252.80
57030;DHT22;42920;45.306;20.448;2024-03-08T00:42:51;179.70;2252.80
57030;DHT22;42920;45.306;20.448;2024-03-08T00:45:18;179.60;2252.80
57030;DHT22;42920;45.306;20.448;2024-03-08T00:47:44;179.60;2252.80
57030;DHT22;42920;45.306;20.448;2024-03-08T00:50:14;179.60;2252.80
57030;DHT22;42920;45.306;20.448;2024-03-08T00:52:40;179.60;2252.80
57030;DHT22;42920;45.306;20.448;2024-03-08T00:55:06;179.60;2252.80
57030;DHT22;42920;45.306;20.448;2024-03-08T00:57:33;179.60;2252.80
57030;DHT22;42920;45.306;20.448;2024-03-08T00:59:59;179.70;2252.80
57030;DHT22;42920;45.306;20.448;2024-03-08T01:02:25;179.60;2252.80
57030;DHT22;42920;45.306;20.448;2024-03-08T01:04:51;179.60;2252.80
57030;DHT22;42920;45.306;20.448;2024-03-08T01:07:16;179.60;2252.80
57030;DHT22;42920;45.306;20.448;2024-03-08T01:09:42;179.60;2252.80
57030;DHT22;42920;45.306;20.448;2024-03-08T01:12:08;179.60;2252.80
57030;DHT22;42920;45.306;20.448;2024-03-08T01:14:36;179.60;2252.80
57030;DHT22;42920;45.306;20.448;2024-03-08T01:17:01;179.70;2252.80
57030;DHT22;42920;45.306;20.448;2024-03-08T01:19:27;179.60;2252.80
57030;DHT22;42920;45.306;20.448;2024-03-08T01:21:53;179.60;2252.80
57030;DHT22;42920;45.306;20.448;2024-03-08T01:24:22;179.70;2252.80
57030;DHT22;42920;45.306;20.448;2024-03-08T01:26:48;179.60;2252.80
57030;DHT22;42920;45.306;20.448;2024-03-08T01:29:14;179.60;2252.80
57030;DHT22;42920;45.306;20.448;2024-03-08T01:31:40;179.60;2252.80
57030;DHT22;42920;45.306;20.448;2024-03-08T01:34:05;179.50;2252.80
57030;DHT22;42920;45.306;20.448;2024-03-08T01:36:31;179.50;2252.80
57030;DHT22;42920;45.306;20.448;2024-03-08T01:38:57;179.50;2252.80
57030;DHT22;42920;45.306;20.448;2024-03-08T01:41:23;179.50;2252.80
57030;DHT22;42920;45.306;20.448;2024-03-08T01:43:49;179.40;2252.80
57030;DHT22;42920;45.306;20.448;2024-03-08T01:46:18;179.40;2252.80
57030;DHT22;42920;45.306;20.448;2024-03-08T01:48:45;179.40;2252.80
57030;DHT22;42920;45.306;20.448;2024-03-08T01:51:11;179.40;2252.80
57030;DHT22;42920;45.306;20.448;2024-03-08T01:53:38;179.40;2252.80
57030;DHT22;42920;45.306;20.448;2024-03-08T01:56:04;179.40;2252.80
57030;DHT22;42920;45.306;20.448;2024-03-08T01:58:31;179.40;2252.80
57030;DHT22;42920;45.306;20.448;2024-03-08T02:00:58;179.40;2252.80
57030;DHT22;42920;45.306;20.448;2024-03-08T02:03:25;179.40;2252.80
57030;DHT22;42920;45.306;20.448;2024-03-08T02:05:50;179.30;2252.80
57030;DHT22;42920;45.306;20.448;2024-03-08T02:08:17;179.40;2252.80
57030;DHT22;42920;45.306;20.448;2024-03-08T02:10:44;179.40;2252.80
57030;DHT22;42920;45.306;20.448;2024-03-08T02:13:11;179.40;2252.80
57030;DHT22;42920;45.306;20.448;2024-03-08T02:16:03;179.40;2252.80
57030;DHT22;42920;45.306;20.448;2024-03-08T02:18:30;179.40;2252.80
57030;DHT22;42920;45.306;20.448;2024-03-08T02:21:00;179.50;2252.80
57030;DHT22;42920;45.306;20.448;2024-03-08T02:23:26;179.40;2252.80
57030;DHT22;42920;45.306;20.448;2024-03-08T02:25:53;179.40;2252.80
57030;DHT22;42920;45.306;20.448;2024-03-08T02:28:20;179.40;2252.80
57030;DHT22;42920;45.306;20.448;2024-03-08T02:30:46;179.40;2252.80
57030;DHT22;42920;45.306;20.448;2024-03-08T02:33:17;179.40;2252.80
57030;DHT22;42920;45.306;20.448;2024-03-08T02:35:44;179.40;2252.80
57030;DHT22;42920;45.306;20.448;2024-03-08T02:38:17;179.40;2252.80
57030;DHT22;42920;45.306;20.448;2024-03-08T02:40:49;179.40;2252.80
57030;DHT22;42920;45.306;20.448;2024-03-08T02:43:17;179.40;2252.80
57030;DHT22;42920;45.306;20.448;2024-03-08T02:45:43;179.30;2252.80
57030;DHT22;42920;45.306;20.448;2024-03-08T02:48:11;179.40;2252.80
57030;DHT22;42920;45.306;20.448;2024-03-08T02:50:37;179.40;2252.80
57030;DHT22;42920;45.306;20.448;2024-03-08T02:53:06;179.40;2252.80
57030;DHT22;42920;45.306;20.448;2024-03-08T02:55:32;179.40;2252.80
57030;DHT22;42920;45.306;20.448;2024-03-08T02:58:02;179.30;2252.80
57030;DHT22;42920;45.306;20.448;2024-03-08T03:00:29;179.40;2252.80
57030;DHT22;42920;45.306;20.448;2024-03-08T03:02:57;179.30;2252.80
57030;DHT22;42920;45.306;20.448;2024-03-08T03:05:23;179.30;2252.80
57030;DHT22;42920;45.306;20.448;2024-03-08T03:07:50;179.20;2252.80
57030;DHT22;42920;45.306;20.448;2024-03-08T03:10:19;179.30;2252.80
57030;DHT22;42920;45.306;20.448;2024-03-08T03:12:47;179.30;2252.80
57030;DHT22;42920;45.306;20.448;2024-03-08T03:15:17;179.20;2252.80
57030;DHT22;42920;45.306;20.448;2024-03-08T03:17:50;179.20;2252.80
57030;DHT22;42920;45.306;20.448;2024-03-08T03:20:19;179.20;2252.80
57030;DHT22;42920;45.306;20.448;2024-03-08T03:22:49;179.20;2252.80
57030;DHT22;42920;45.306;20.448;2024-03-08T03:25:21;179.20;2252.80
57030;DHT22;42920;45.306;20.448;2024-03-08T03:27:52;179.20;2252.80
57030;DHT22;42920;45.306;20.448;2024-03-08T03:30:18;179.20;2252.80
57030;DHT22;42920;45.306;20.448;2024-03-08T03:32:50;179.20;2252.80
57030;DHT22;42920;45.306;20.448;2024-03-08T03:35:19;154.50;2252.80
57030;DHT22;42920;45.306;20.448;2024-03-08T03:37:46;179.20;2252.80
57030;DHT22;42920;45.306;20.448;2024-03-08T03:40:39;179.20;2252.80
57030;DHT22;42920;45.306;20.448;2024-03-08T03:43:05;154.50;2252.80
57030;DHT22;42920;45.306;20.448;2024-03-08T03:45:31;154.50;2252.80
57030;DHT22;42920;45.306;20.448;2024-03-08T03:48:05;154.50;2252.80
57030;DHT22;42920;45.306;20.448;2024-03-08T03:50:32;154.50;2252.80
57030;DHT22;42920;45.306;20.448;2024-03-08T03:53:01;154.50;2252.80
57030;DHT22;42920;45.306;20.448;2024-03-08T03:55:28;154.50;2252.80
57030;DHT22;42920;45.306;20.448;2024-03-08T03:57:54;154.50;2252.80
57030;DHT22;42920;45.306;20.448;2024-03-08T04:00:20;179.20;2252.80
57030;DHT22;42920;45.306;20.448;2024-03-08T04:02:46;179.20;2252.80
57030;DHT22;42920;45.306;20.448;2024-03-08T04:05:13;179.20;2252.80
57030;DHT22;42920;45.306;20.448;2024-03-08T04:07:39;154.50;2252.80
57030;DHT22;42920;45.306;20.448;2024-03-08T04:10:06;154.50;2252.80
57030;DHT22;42920;45.306;20.448;2024-03-08T04:12:33;154.50;2252.80
57030;DHT22;42920;45.306;20.448;2024-03-08T04:14:59;179.20;2252.80
57030;DHT22;42920;45.306;20.448;2024-03-08T04:17:25;179.20;2252.80
57030;DHT22;42920;45.306;20.448;2024-03-08T04:19:51;179.20;2252.80
57030;DHT22;42920;45.306;20.448;2024-03-08T04:22:18;154.50;2252.80
57030;DHT22;42920;45.306;20.448;2024-03-08T04:24:44;154.50;2252.80
57030;DHT22;42920;45.306;20.448;2024-03-08T04:27:11;179.20;2252.80
57030;DHT22;42920;45.306;20.448;2024-03-08T04:29:37;179.20;2252.80
57030;DHT22;42920;45.306;20.448;2024-03-08T04:32:04;179.20;2252.80
57030;DHT22;42920;45.306;20.448;2024-03-08T04:34:31;179.30;2252.80
57030;DHT22;42920;45.306;20.448;2024-03-08T04:36:57;179.30;2252.80
57030;DHT22;42920;45.306;20.448;2024-03-08T04:39:23;179.20;2252.80
57030;DHT22;42920;45.306;20.448;2024-03-08T04:41:49;179.30;2252.80
57030;DHT22;42920;45.306;20.448;2024-03-08T04:44:15;179.20;2252.80
57030;DHT22;42920;45.306;20.448;2024-03-08T04:46:41;179.40;2252.80
57030;DHT22;42920;45.306;20.448;2024-03-08T04:49:07;179.20;2252.80
57030;DHT22;42920;45.306;20.448;2024-03-08T04:51:33;179.20;2252.80
57030;DHT22;42920;45.306;20.448;2024-03-08T04:53:59;179.20;2252.80
57030;DHT22;42920;45.306;20.448;2024-03-08T04:56:25;179.20;2252.80
57030;DHT22;42920;45.306;20.448;2024-03-08T04:58:51;179.20;2252.80
57030;DHT22;42920;45.306;20.448;2024-03-08T05:01:17;179.20;2252.80
57030;DHT22;42920;45.306;20.448;2024-03-08T05:03:42;179.20;2252.80
57030;DHT22;42920;45.306;20.448;2024-03-08T05:06:09;179.20;2252.80
57030;DHT22;42920;45.306;20.448;2024-03-08T05:08:35;179.20;2252.80
57030;DHT22;42920;45.306;20.448;2024-03-08T05:11:00;179.20;2252.80
57030;DHT22;42920;45.306;20.448;2024-03-08T05:13:30;179.20;2252.80
57030;DHT22;42920;45.306;20.448;2024-03-08T05:15:56;179.20;2252.80
57030;DHT22;42920;45.306;20.448;2024-03-08T05:18:24;179.30;2252.80
57030;DHT22;42920;45.306;20.448;2024-03-08T05:20:50;179.30;2252.80
57030;DHT22;42920;45.306;20.448;2024-03-08T05:23:17;179.30;2252.80
57030;DHT22;42920;45.306;20.448;2024-03-08T05:25:45;179.20;2252.80
57030;DHT22;42920;45.306;20.448;2024-03-08T05:28:14;179.20;2252.80
57030;DHT22;42920;45.306;20.448;2024-03-08T05:30:40;179.20;2252.80
57030;DHT22;42920;45.306;20.448;2024-03-08T05:33:05;179.20;2252.80
57030;DHT22;42920;45.306;20.448;2024-03-08T05:35:36;179.20;2252.80
57030;DHT22;42920;45.306;20.448;2024-03-08T05:38:02;179.20;2252.80
57030;DHT22;42920;45.306;20.448;2024-03-08T05:40:28;179.20;2252.80
57030;DHT22;42920;45.306;20.448;2024-03-08T05:43:00;179.20;2252.80
57030;DHT22;42920;45.306;20.448;2024-03-08T05:45:26;179.20;2252.80
57030;DHT22;42920;45.306;20.448;2024-03-08T05:47:52;179.20;2252.80
57030;DHT22;42920;45.306;20.448;2024-03-08T05:50:18;179.20;2252.80
57030;DHT22;42920;45.306;20.448;2024-03-08T05:52:45;154.50;2252.80
57030;DHT22;42920;45.306;20.448;2024-03-08T05:55:10;154.50;2252.80
57030;DHT22;42920;45.306;20.448;2024-03-08T05:57:42;154.50;2252.80
57030;DHT22;42920;45.306;20.448;2024-03-08T06:00:09;154.50;2252.80
57030;DHT22;42920;45.306;20.448;2024-03-08T06:02:41;154.50;2252.80
57030;DHT22;42920;45.306;20.448;2024-03-08T06:05:10;179.20;2252.80
57030;DHT22;42920;45.306;20.448;2024-03-08T06:07:37;154.50;2252.80
57030;DHT22;42920;45.306;20.448;2024-03-08T06:10:09;154.50;2252.80
57030;DHT22;42920;45.306;20.448;2024-03-08T06:12:36;179.20;2252.80
57030;DHT22;42920;45.306;20.448;2024-03-08T06:15:10;179.20;2252.80
57030;DHT22;42920;45.306;20.448;2024-03-08T06:17:39;179.20;2252.80
57030;DHT22;42920;45.306;20.448;2024-03-08T06:20:05;179.30;2252.80
57030;DHT22;42920;45.306;20.448;2024-03-08T06:22:37;179.20;2252.80
57030;DHT22;42920;45.306;20.448;2024-03-08T06:25:07;179.20;2252.80
57030;DHT22;42920;45.306;20.448;2024-03-08T06:27:33;179.20;2252.80
57030;DHT22;42920;45.306;20.448;2024-03-08T06:30:00;179.20;2252.80
57030;DHT22;42920;45.306;20.448;2024-03-08T06:32:26;179.30;2252.80
57030;DHT22;42920;45.306;20.448;2024-03-08T06:34:51;179.30;2252.80
57030;DHT22;42920;45.306;20.448;2024-03-08T06:37:17;179.30;2252.80
57030;DHT22;42920;45.306;20.448;2024-03-08T06:39:49;179.30;2252.80
57030;DHT22;42920;45.306;20.448;2024-03-08T06:42:17;179.30;2252.80
57030;DHT22;42920;45.306;20.448;2024-03-08T06:44:43;179.30;2252.80
57030;DHT22;42920;45.306;20.448;2024-03-08T06:47:15;179.40;2252.80
57030;DHT22;42920;45.306;20.448;2024-03-08T06:49:45;179.80;2252.80
57030;DHT22;42920;45.306;20.448;2024-03-08T06:52:11;179.40;2252.80
57030;DHT22;42920;45.306;20.448;2024-03-08T06:54:37;179.40;2252.80
57030;DHT22;42920;45.306;20.448;2024-03-08T06:57:06;179.50;2252.80
57030;DHT22;42920;45.306;20.448;2024-03-08T06:59:35;179.40;2252.80
57030;DHT22;42920;45.306;20.448;2024-03-08T07:02:02;179.50;2252.80
57030;DHT22;42920;45.306;20.448;2024-03-08T07:04:27;179.50;2252.80
57030;DHT22;42920;45.306;20.448;2024-03-08T07:06:58;179.50;2252.80
57030;DHT22;42920;45.306;20.448;2024-03-08T07:09:24;179.50;2252.80
57030;DHT22;42920;45.306;20.448;2024-03-08T07:11:51;179.50;2252.80
57030;DHT22;42920;45.306;20.448;2024-03-08T07:14:23;179.50;2252.80
57030;DHT22;42920;45.306;20.448;2024-03-08T07:16:49;179.40;2252.80
57030;DHT22;42920;45.306;20.448;2024-03-08T07:19:16;179.50;2252.80
57030;DHT22;42920;45.306;20.448;2024-03-08T07:21:43;179.50;2252.80
57030;DHT22;42920;45.306;20.448;2024-03-08T07:24:10;179.40;2252.80
57030;DHT22;42920;45.306;20.448;2024-03-08T07:26:54;179.50;2252.80
57030;DHT22;42920;45.306;20.448;2024-03-08T07:29:21;179.50;2252.80
57030;DHT22;42920;45.306;20.448;2024-03-08T07:31:47;179.50;2252.80
57030;DHT22;42920;45.306;20.448;2024-03-08T07:34:21;179.60;2252.80
57030;DHT22;42920;45.306;20.448;2024-03-08T07:36:47;179.70;2252.80
57030;DHT22;42920;45.306;20.448;2024-03-08T07:39:14;179.70;2252.80
57030;DHT22;42920;45.306;20.448;2024-03-08T07:41:40;179.70;2252.80
57030;DHT22;42920;45.306;20.448;2024-03-08T07:44:07;179.60;2252.80
57030;DHT22;42920;45.306;20.448;2024-03-08T07:46:32;179.70;2252.80
57030;DHT22;42920;45.306;20.448;2024-03-08T07:49:03;179.70;2252.80
57030;DHT22;42920;45.306;20.448;2024-03-08T07:51:29;179.70;2252.80
57030;DHT22;42920;45.306;20.448;2024-03-08T07:53:56;179.70;2252.80
57030;DHT22;42920;45.306;20.448;2024-03-08T07:56:22;179.70;2252.80
57030;DHT22;42920;45.306;20.448;2024-03-08T07:58:48;179.80;2252.80
57030;DHT22;42920;45.306;20.448;2024-03-08T08:01:17;179.80;2252.80
57030;DHT22;42920;45.306;20.448;2024-03-08T08:03:43;179.80;2252.80
57030;DHT22;42920;45.306;20.448;2024-03-08T08:06:09;179.90;2252.80
57030;DHT22;42920;45.306;20.448;2024-03-08T08:08:35;179.90;2252.80
57030;DHT22;42920;45.306;20.448;2024-03-08T08:11:02;179.90;2252.80
57030;DHT22;42920;45.306;20.448;2024-03-08T08:13:28;179.90;2252.80
57030;DHT22;42920;45.306;20.448;2024-03-08T08:15:58;180.00;2252.80
57030;DHT22;42920;45.306;20.448;2024-03-08T08:18:24;179.90;2252.80
57030;DHT22;42920;45.306;20.448;2024-03-08T08:20:51;180.10;2252.80
57030;DHT22;42920;45.306;20.448;2024-03-08T08:23:18;180.10;2252.80
57030;DHT22;42920;45.306;20.448;2024-03-08T08:25:46;204.80;2252.80
57030;DHT22;42920;45.306;20.448;2024-03-08T08:28:11;204.80;2252.80
57030;DHT22;42920;45.306;20.448;2024-03-08T08:30:38;204.80;2252.80
57030;DHT22;42920;45.306;20.448;2024-03-08T08:33:04;204.90;2252.80
57030;DHT22;42920;45.306;20.448;2024-03-08T08:35:33;204.80;2252.80
57030;DHT22;42920;45.306;20.448;2024-03-08T08:37:58;204.80;2252.80
57030;DHT22;42920;45.306;20.448;2024-03-08T08:40:25;204.90;2252.80
57030;DHT22;42920;45.306;20.448;2024-03-08T08:42:51;204.90;2252.80
57030;DHT22;42920;45.306;20.448;2024-03-08T08:45:23;205.00;2252.80
57030;DHT22;42920;45.306;20.448;2024-03-08T08:47:48;205.00;2252.80
57030;DHT22;42920;45.306;20.448;2024-03-08T08:50:15;205.00;2252.80
57030;DHT22;42920;45.306;20.448;2024-03-08T08:52:42;205.10;2252.80
57030;DHT22;42920;45.306;20.448;2024-03-08T08:55:10;205.10;2252.80
57030;DHT22;42920;45.306;20.448;2024-03-08T08:57:40;205.10;2252.80
57030;DHT22;42920;45.306;20.448;2024-03-08T09:00:07;205.10;2252.80
57030;DHT22;42920;45.306;20.448;2024-03-08T09:02:36;205.10;2252.80
57030;DHT22;42920;45.306;20.448;2024-03-08T09:05:03;205.10;2252.80
57030;DHT22;42920;45.306;20.448;2024-03-08T09:07:29;205.10;2252.80
57030;DHT22;42920;45.306;20.448;2024-03-08T09:09:55;205.10;2252.80
57030;DHT22;42920;45.306;20.448;2024-03-08T09:12:24;205.20;2252.80
57030;DHT22;42920;45.306;20.448;2024-03-08T09:14:50;205.40;2252.80
57030;DHT22;42920;45.306;20.448;2024-03-08T09:17:16;205.30;2252.80
57030;DHT22;42920;45.306;20.448;2024-03-08T09:19:49;205.30;2252.80
57030;DHT22;42920;45.306;20.448;2024-03-08T09:22:15;205.30;2252.80
57030;DHT22;42920;45.306;20.448;2024-03-08T09:24:41;205.40;2252.80
57030;DHT22;42920;45.306;20.448;2024-03-08T09:27:08;205.30;2252.80
57030;DHT22;42920;45.306;20.448;2024-03-08T09:29:35;205.40;2252.80
57030;DHT22;42920;45.306;20.448;2024-03-08T09:32:03;205.30;2252.80
57030;DHT22;42920;45.306;20.448;2024-03-08T09:34:30;205.30;2252.80
57030;DHT22;42920;45.306;20.448;2024-03-08T09:36:55;205.40;2252.80
57030;DHT22;42920;45.306;20.448;2024-03-08T09:39:22;205.40;2252.80
57030;DHT22;42920;45.306;20.448;2024-03-08T09:41:48;205.40;2252.80
57030;DHT22;42920;45.306;20.448;2024-03-08T09:44:15;205.40;2252.80
57030;DHT22;42920;45.306;20.448;2024-03-08T09:46:42;205.60;2252.80
57030;DHT22;42920;45.306;20.448;2024-03-08T09:49:08;205.50;2252.80
57030;DHT22;42920;45.306;20.448;2024-03-08T09:51:37;205.50;2252.80
57030;DHT22;42920;45.306;20.448;2024-03-08T09:54:06;205.40;2252.80
57030;DHT22;42920;45.306;20.448;2024-03-08T09:56:36;205.50;2252.80
57030;DHT22;42920;45.306;20.448;2024-03-08T09:59:02;205.50;2252.80
57030;DHT22;42920;45.306;20.448;2024-03-08T10:01:37;205.50;2252.80
57030;DHT22;42920;45.306;20.448;2024-03-08T10:04:04;205.50;2252.80
57030;DHT22;42920;45.306;20.448;2024-03-08T10:06:30;205.50;2252.80
57030;DHT22;42920;45.306;20.448;2024-03-08T10:08:57;205.50;2252.80
57030;DHT22;42920;45.306;20.448;2024-03-08T10:11:24;205.50;2252.80
57030;DHT22;42920;45.306;20.448;2024-03-08T10:13:51;205.60;2252.80
57030;DHT22;42920;45.306;20.448;2024-03-08T10:16:17;205.70;2252.80
57030;DHT22;42920;45.306;20.448;2024-03-08T10:18:45;205.70;2252.80
57030;DHT22;42920;45.306;20.448;2024-03-08T10:21:12;205.70;2252.80
57030;DHT22;42920;45.306;20.448;2024-03-08T10:23:40;205.70;2252.80
57030;DHT22;42920;45.306;20.448;2024-03-08T10:26:18;230.40;2252.80
57030;DHT22;42920;45.306;20.448;2024-03-08T10:28:50;230.40;2252.80
57030;DHT22;42920;45.306;20.448;2024-03-08T10:31:17;230.50;2252.80
57030;DHT22;42920;45.306;20.448;2024-03-08T10:33:43;230.50;2252.80
57030;DHT22;42920;45.306;20.448;2024-03-08T10:36:14;230.40;2252.80
57030;DHT22;42920;45.306;20.448;2024-03-08T10:38:41;230.40;2252.80
57030;DHT22;42920;45.306;20.448;2024-03-08T10:41:08;230.40;2252.80
57030;DHT22;42920;45.306;20.448;2024-03-08T10:46:53;230.50;2252.80
57030;DHT22;42920;45.306;20.448;2024-03-08T10:49:28;230.50;2252.80
57030;DHT22;42920;45.306;20.448;2024-03-08T10:51:57;230.50;2252.80
57030;DHT22;42920;45.306;20.448;2024-03-08T10:54:26;230.50;2252.80
57030;DHT22;42920;45.306;20.448;2024-03-08T10:56:53;230.60;2252.80
57030;DHT22;42920;45.306;20.448;2024-03-08T10:59:21;230.60;2252.80
57030;DHT22;42920;45.306;20.448;2024-03-08T11:01:47;230.60;2252.80
57030;DHT22;42920;45.306;20.448;2024-03-08T11:04:13;230.60;2252.80
57030;DHT22;42920;45.306;20.448;2024-03-08T11:06:42;230.70;2252.80
57030;DHT22;42920;45.306;20.448;2024-03-08T11:09:30;230.80;2252.80
57030;DHT22;42920;45.306;20.448;2024-03-08T11:12:27;230.70;2252.80
57030;DHT22;42920;45.306;20.448;2024-03-08T11:15:02;230.80;2252.80
57030;DHT22;42920;45.306;20.448;2024-03-08T11:19:58;231.00;2252.80
57030;DHT22;42920;45.306;20.448;2024-03-08T11:22:32;231.00;2252.80
57030;DHT22;42920;45.306;20.448;2024-03-08T11:25:05;231.00;2252.80
57030;DHT22;42920;45.306;20.448;2024-03-08T11:27:38;231.10;2252.80
57030;DHT22;42920;45.306;20.448;2024-03-08T11:30:04;231.10;2252.80
57030;DHT22;42920;45.306;20.448;2024-03-08T11:32:38;231.10;2252.80
57030;DHT22;42920;45.306;20.448;2024-03-08T11:35:08;231.20;2252.80
57030;DHT22;42920;45.306;20.448;2024-03-08T11:37:47;231.30;2252.80
57030;DHT22;42920;45.306;20.448;2024-03-08T11:40:14;256.00;2252.80
57030;DHT22;42920;45.306;20.448;2024-03-08T11:42:45;256.10;2252.80
57030;DHT22;42920;45.306;20.448;2024-03-08T11:45:17;256.10;2252.80
57030;DHT22;42920;45.306;20.448;2024-03-08T11:47:47;256.20;2252.80
57030;DHT22;42920;45.306;20.448;2024-03-08T11:50:13;256.40;2252.80
57030;DHT22;42920;45.306;20.448;2024-03-08T11:52:40;256.10;2252.80
57030;DHT22;42920;45.306;20.448;2024-03-08T11:55:06;256.10;2252.80
57030;DHT22;42920;45.306;20.448;2024-03-08T11:57:32;256.00;2252.80
57030;DHT22;42920;45.306;20.448;2024-03-08T11:59:59;256.20;2252.80
57030;DHT22;42920;45.306;20.448;2024-03-08T12:02:35;256.20;2252.80
57030;DHT22;42920;45.306;20.448;2024-03-08T12:05:03;256.40;2252.80
57030;DHT22;42920;45.306;20.448;2024-03-08T12:07:30;256.30;2252.80
57030;DHT22;42920;45.306;20.448;2024-03-08T12:10:24;256.30;2252.80
57030;DHT22;42920;45.306;20.448;2024-03-08T12:12:52;256.40;2252.80
57030;DHT22;42920;45.306;20.448;2024-03-08T12:15:23;256.50;2252.80
57030;DHT22;42920;45.306;20.448;2024-03-08T12:17:52;256.50;2252.80
57030;DHT22;42920;45.306;20.448;2024-03-08T12:22:49;256.50;2252.80
57030;DHT22;42920;45.306;20.448;2024-03-08T12:25:18;256.60;2252.80
57030;DHT22;42920;45.306;20.448;2024-03-08T12:27:44;256.60;2252.80
57030;DHT22;42920;45.306;20.448;2024-03-08T12:30:24;256.60;2252.80
57030;DHT22;42920;45.306;20.448;2024-03-08T12:32:58;256.60;2252.80
57030;DHT22;42920;45.306;20.448;2024-03-08T12:35:26;256.70;2252.80
57030;DHT22;42920;45.306;20.448;2024-03-08T12:37:54;256.70;2252.80
57030;DHT22;42920;45.306;20.448;2024-03-08T12:40:28;256.70;2252.80
57030;DHT22;42920;45.306;20.448;2024-03-08T12:42:58;256.70;2252.80
57030;DHT22;42920;45.306;20.448;2024-03-08T12:45:24;256.60;2252.80
57030;DHT22;42920;45.306;20.448;2024-03-08T12:47:54;256.60;2252.80
57030;DHT22;42920;45.306;20.448;2024-03-08T12:50:21;256.60;2252.80
57030;DHT22;42920;45.306;20.448;2024-03-08T12:52:47;256.60;2252.80
57030;DHT22;42920;45.306;20.448;2024-03-08T12:55:16;256.70;2252.80
57030;DHT22;42920;45.306;20.448;2024-03-08T12:57:44;256.90;2252.80
57030;DHT22;42920;45.306;20.448;2024-03-08T13:00:10;256.90;2252.80
57030;DHT22;42920;45.306;20.448;2024-03-08T13:02:45;256.90;2252.80
57030;DHT22;42920;45.306;20.448;2024-03-08T13:05:11;281.80;2278.40
57030;DHT22;42920;45.306;20.448;2024-03-08T13:07:40;281.90;2278.40
57030;DHT22;42920;45.306;20.448;2024-03-08T13:10:07;282.00;2278.40
57030;DHT22;42920;45.306;20.448;2024-03-08T13:12:34;282.00;2278.40
57030;DHT22;42920;45.306;20.448;2024-03-08T13:15:03;282.00;2278.40
57030;DHT22;42920;45.306;20.448;2024-03-08T13:17:30;282.10;2278.40
57030;DHT22;42920;45.306;20.448;2024-03-08T13:19:56;282.00;2278.40
57030;DHT22;42920;45.306;20.448;2024-03-08T13:22:24;282.00;2278.40
57030;DHT22;42920;45.306;20.448;2024-03-08T13:24:51;282.10;2278.40
57030;DHT22;42920;45.306;20.448;2024-03-08T13:27:18;282.00;2278.40
57030;DHT22;42920;45.306;20.448;2024-03-08T13:29:51;282.10;2278.40
57030;DHT22;42920;45.306;20.448;2024-03-08T13:32:17;282.00;2278.40
57030;DHT22;42920;45.306;20.448;2024-03-08T13:34:43;282.10;2278.40
57030;DHT22;42920;45.306;20.448;2024-03-08T13:37:20;282.10;2278.40
57030;DHT22;42920;45.306;20.448;2024-03-08T13:39:45;282.20;2278.40
57030;DHT22;42920;45.306;20.448;2024-03-08T13:42:12;282.00;2278.40
57030;DHT22;42920;45.306;20.448;2024-03-08T13:44:42;282.00;2278.40
57030;DHT22;42920;45.306;20.448;2024-03-08T13:47:08;282.00;2278.40
57030;DHT22;42920;45.306;20.448;2024-03-08T13:49:37;282.10;2278.40
57030;DHT22;42920;45.306;20.448;2024-03-08T13:52:03;282.20;2278.40
57030;DHT22;42920;45.306;20.448;2024-03-08T13:54:30;282.10;2278.40
57030;DHT22;42920;45.306;20.448;2024-03-08T13:56:57;282.30;2278.40
57030;DHT22;42920;45.306;20.448;2024-03-08T13:59:23;282.30;2278.40
57030;DHT22;42920;45.306;20.448;2024-03-08T14:01:49;282.30;2278.40
57030;DHT22;42920;45.306;20.448;2024-03-08T14:04:16;282.50;2278.40
57030;DHT22;42920;45.306;20.448;2024-03-08T14:06:45;282.40;2278.40
57030;DHT22;42920;45.306;20.448;2024-03-08T14:09:11;282.30;2278.40
57030;DHT22;42920;45.306;20.448;2024-03-08T14:11:45;282.30;2278.40
57030;DHT22;42920;45.306;20.448;2024-03-08T14:14:11;282.20;2278.40
57030;DHT22;42920;45.306;20.448;2024-03-08T14:16:40;282.20;2278.40
57030;DHT22;42920;45.306;20.448;2024-03-08T14:19:06;282.20;2278.40
57030;DHT22;42920;45.306;20.448;2024-03-08T14:21:32;282.20;2278.40
57030;DHT22;42920;45.306;20.448;2024-03-08T14:23:58;282.20;2278.40
57030;DHT22;42920;45.306;20.448;2024-03-08T14:26:24;282.10;2278.40
57030;DHT22;42920;45.306;20.448;2024-03-08T14:28:51;282.10;2278.40
57030;DHT22;42920;45.306;20.448;2024-03-08T14:31:22;282.20;2278.40
57030;DHT22;42920;45.306;20.448;2024-03-08T14:33:52;282.20;2278.40
57030;DHT22;42920;45.306;20.448;2024-03-08T14:36:19;282.20;2278.40
57030;DHT22;42920;45.306;20.448;2024-03-08T14:38:49;282.20;2278.40
57030;DHT22;42920;45.306;20.448;2024-03-08T14:41:15;282.10;2278.40
57030;DHT22;42920;45.306;20.448;2024-03-08T14:43:43;282.00;2278.40
57030;DHT22;42920;45.306;20.448;2024-03-08T14:46:15;282.00;2278.40
57030;DHT22;42920;45.306;20.448;2024-03-08T14:48:46;282.00;2278.40